createdAt,value
2018-05-31T00:04:34.517Z,55.40
2018-05-31T00:09:37.012Z,55.50
2018-05-31T00:14:39.575Z,55.50
2018-05-31T00:19:42.135Z,55.60
2018-05-31T00:24:44.683Z,55.50
2018-05-31T00:29:47.207Z,55.50
2018-05-31T00:34:49.695Z,55.70
2018-05-31T00:39:52.175Z,55.70
2018-05-31T00:44:54.668Z,55.70
2018-05-31T00:49:57.144Z,55.80
2018-05-31T00:54:59.631Z,55.80
2018-05-31T01:00:02.112Z,56.50
2018-05-31T01:05:04.630Z,55.90
2018-05-31T01:10:07.112Z,56.00
2018-05-31T01:15:09.588Z,56.10
2018-05-31T01:20:12.072Z,56.10
2018-05-31T01:25:14.556Z,56.10
2018-05-31T01:30:17.817Z,56.20
2018-05-31T01:35:20.316Z,56.20
2018-05-31T01:40:22.800Z,56.30
2018-05-31T01:45:25.284Z,56.30
2018-05-31T01:50:27.779Z,56.30
2018-05-31T01:55:30.272Z,56.30
2018-05-31T02:00:32.756Z,56.40
2018-05-31T02:05:35.236Z,56.40
2018-05-31T02:10:37.721Z,56.40
2018-05-31T02:15:40.227Z,56.40
2018-05-31T02:20:42.713Z,56.40
2018-05-31T02:25:45.199Z,56.40
2018-05-31T02:30:47.689Z,56.50
2018-05-31T02:35:50.177Z,56.60
2018-05-31T02:40:52.657Z,56.50
2018-05-31T02:45:55.908Z,56.70
2018-05-31T02:50:58.401Z,56.60
2018-05-31T02:56:00.885Z,56.60
2018-05-31T03:01:03.379Z,56.60
2018-05-31T03:06:05.873Z,56.60
2018-05-31T03:11:08.357Z,56.80
2018-05-31T03:16:10.853Z,56.80
2018-05-31T03:21:13.356Z,56.90
2018-05-31T03:26:16.615Z,57.00
2018-05-31T03:31:19.100Z,56.90
2018-05-31T03:36:21.584Z,57.40
2018-05-31T03:41:24.076Z,57.00
2018-05-31T03:46:26.564Z,57.10
2018-05-31T03:51:29.051Z,57.30
2018-05-31T03:56:31.539Z,57.40
2018-05-31T04:01:34.044Z,57.20
2018-05-31T04:06:36.532Z,57.30
2018-05-31T04:11:39.024Z,57.20
2018-05-31T04:16:41.512Z,57.20
2018-05-31T04:21:44.000Z,57.20
2018-05-31T04:26:47.340Z,57.20
2018-05-31T04:31:49.828Z,57.50
2018-05-31T04:36:52.317Z,57.30
2018-05-31T04:41:55.580Z,57.80
2018-05-31T04:46:58.068Z,57.30
2018-05-31T04:52:00.560Z,57.40
2018-05-31T04:57:03.043Z,57.20
2018-05-31T05:02:05.531Z,57.30
2018-05-31T05:07:08.784Z,57.30
2018-05-31T05:12:11.277Z,57.30
2018-05-31T05:17:13.768Z,57.30
2018-05-31T05:22:16.276Z,57.30
2018-05-31T05:27:19.104Z,57.20
2018-05-31T05:32:22.359Z,57.20
2018-05-31T05:37:24.868Z,57.10
2018-05-31T05:42:27.368Z,57.30
2018-05-31T05:47:29.872Z,57.20
2018-05-31T05:52:32.364Z,57.10
2018-05-31T05:57:34.847Z,57.20
2018-05-31T06:02:37.332Z,57.20
2018-05-31T06:07:39.836Z,57.20
2018-05-31T06:12:42.339Z,57.20
2018-05-31T06:17:44.839Z,57.10
2018-05-31T06:22:47.336Z,57.30
2018-05-31T06:27:49.842Z,57.10
2018-05-31T06:32:53.108Z,57.30
2018-05-31T06:37:55.608Z,57.30
2018-05-31T06:42:58.271Z,57.30
2018-05-31T06:48:00.824Z,57.10
2018-05-31T06:53:03.320Z,57.10
2018-05-31T06:58:05.832Z,57.40
2018-05-31T07:03:09.100Z,57.40
2018-05-31T07:08:11.619Z,57.40
2018-05-31T07:13:14.883Z,57.50
2018-05-31T07:18:17.404Z,57.50
2018-05-31T07:23:19.901Z,58.00
2018-05-31T07:28:22.400Z,58.70
2018-05-31T07:33:24.905Z,58.50
2018-05-31T07:38:28.184Z,59.80
2018-05-31T07:43:30.685Z,59.10
2018-05-31T07:48:33.189Z,58.50
2018-05-31T07:53:35.676Z,58.70
2018-05-31T07:58:38.236Z,58.40
2018-05-31T08:03:40.724Z,58.30
2018-05-31T08:08:43.236Z,59.10
2018-05-31T08:13:45.736Z,59.00
2018-05-31T08:18:48.236Z,58.70
2018-05-31T08:23:50.740Z,59.50
2018-05-31T08:28:53.228Z,58.80
2018-05-31T08:33:55.732Z,58.90
2018-05-31T08:38:58.233Z,58.80
2018-05-31T08:44:01.495Z,58.60
2018-05-31T08:49:04.009Z,58.60
2018-05-31T08:54:06.517Z,59.10
2018-05-31T08:59:09.022Z,58.70
2018-05-31T09:04:11.511Z,58.90
2018-05-31T09:09:14.796Z,59.20
2018-05-31T09:14:17.322Z,59.10
2018-05-31T09:19:20.612Z,58.70
2018-05-31T09:24:23.101Z,58.70
2018-05-31T09:29:25.641Z,58.70
2018-05-31T09:34:28.084Z,58.50
2018-05-31T09:39:30.576Z,58.80
2018-05-31T09:44:33.096Z,58.60
2018-05-31T09:49:36.361Z,58.30
2018-05-31T09:54:38.886Z,58.30
2018-05-31T09:59:41.373Z,57.70
2018-05-31T10:04:43.876Z,58.70
2018-05-31T10:09:46.391Z,56.90
2018-05-31T10:14:49.640Z,58.70
2018-05-31T10:19:52.137Z,58.60
2018-05-31T10:24:54.640Z,57.90
2018-05-31T10:29:57.443Z,58.60
2018-05-31T10:34:59.939Z,57.80
2018-05-31T10:40:02.448Z,58.80
2018-05-31T10:45:04.951Z,57.60
2018-05-31T10:50:08.227Z,57.00
2018-05-31T10:55:10.741Z,56.90
2018-05-31T11:00:13.244Z,57.30
2018-05-31T11:05:15.736Z,57.60
2018-05-31T11:10:18.228Z,57.30
2018-05-31T11:15:20.736Z,57.50
2018-05-31T11:20:23.992Z,55.40
2018-05-31T11:25:26.496Z,55.30
2018-05-31T11:30:28.999Z,56.20
2018-05-31T11:35:31.480Z,56.30
2018-05-31T11:40:33.983Z,56.40
2018-05-31T11:45:36.490Z,55.70
2018-05-31T11:50:38.980Z,55.20
2018-05-31T11:55:41.494Z,56.10
2018-05-31T12:00:44.756Z,56.10
2018-05-31T12:05:47.256Z,56.00
2018-05-31T12:10:49.826Z,56.30
2018-05-31T12:15:52.256Z,56.20
2018-05-31T12:20:54.756Z,55.70
2018-05-31T12:25:57.247Z,53.70
2018-05-31T12:30:59.748Z,54.60
2018-05-31T12:36:02.255Z,55.40
2018-05-31T12:41:05.512Z,54.80
2018-05-31T12:46:07.999Z,54.80
2018-05-31T12:51:10.532Z,54.40
2018-05-31T12:56:13.020Z,54.50
2018-05-31T13:01:15.511Z,54.30
2018-05-31T13:06:18.011Z,54.50
2018-05-31T13:11:20.491Z,54.10
2018-05-31T13:16:23.025Z,53.50
2018-05-31T13:21:26.289Z,51.90
2018-05-31T13:26:28.804Z,51.90
2018-05-31T13:31:31.304Z,51.80
2018-05-31T13:36:33.792Z,52.50
2018-05-31T13:41:36.289Z,51.10
2018-05-31T13:46:38.783Z,51.40
2018-05-31T13:51:41.295Z,51.20
2018-05-31T13:56:44.574Z,50.00
2018-05-31T14:01:47.053Z,49.90
2018-05-31T14:06:49.568Z,49.70
2018-05-31T14:11:52.060Z,50.10
2018-05-31T14:16:54.549Z,50.10
2018-05-31T14:21:57.036Z,50.40
2018-05-31T14:26:59.554Z,50.70
2018-05-31T14:32:02.080Z,50.60
2018-05-31T14:37:04.573Z,50.80
2018-05-31T14:42:07.064Z,50.60
2018-05-31T14:47:09.559Z,50.60
2018-05-31T14:52:12.050Z,50.70
2018-05-31T14:57:14.523Z,51.00
2018-05-31T15:02:17.776Z,53.30
2018-05-31T15:07:20.271Z,53.20
2018-05-31T15:12:22.764Z,54.10
2018-05-31T15:17:25.250Z,54.80
2018-05-31T15:22:27.741Z,55.10
2018-05-31T15:27:30.234Z,55.60
2018-05-31T15:32:32.752Z,55.60
2018-05-31T15:37:35.248Z,55.80
2018-05-31T15:42:37.734Z,55.80
2018-05-31T15:47:40.207Z,55.70
2018-05-31T15:52:42.707Z,56.00
2018-05-31T15:57:45.216Z,56.20
2018-05-31T16:02:47.716Z,56.10
2018-05-31T16:07:50.212Z,56.50
2018-05-31T16:12:52.696Z,56.00
2018-05-31T16:17:55.221Z,55.90
2018-05-31T16:22:58.459Z,55.60
2018-05-31T16:28:00.960Z,55.60
2018-05-31T16:33:03.461Z,55.40
2018-05-31T16:38:05.960Z,55.30
2018-05-31T16:43:08.457Z,55.10
2018-05-31T16:48:10.937Z,54.90
2018-05-31T16:53:13.431Z,54.80
2018-05-31T16:58:15.931Z,54.50
2018-05-31T17:03:18.420Z,54.30
2018-05-31T17:08:20.911Z,55.40
2018-05-31T17:13:23.404Z,54.80
2018-05-31T17:18:25.884Z,54.20
2018-05-31T17:23:28.397Z,53.90
2018-05-31T17:28:30.997Z,53.90
2018-05-31T17:33:33.512Z,53.80
2018-05-31T17:38:36.008Z,53.70
2018-05-31T17:43:38.532Z,54.00
2018-05-31T17:48:41.788Z,54.20
2018-05-31T17:53:44.292Z,54.20
2018-05-31T17:58:46.784Z,54.80
2018-05-31T18:03:49.300Z,55.10
2018-05-31T18:08:51.810Z,55.10
2018-05-31T18:13:54.298Z,54.80
2018-05-31T18:18:56.844Z,54.50
2018-05-31T18:23:59.326Z,54.40
2018-05-31T18:29:01.812Z,54.10
2018-05-31T18:34:04.349Z,54.00
2018-05-31T18:39:06.859Z,54.00
2018-05-31T18:44:09.414Z,53.90
2018-05-31T18:49:12.043Z,53.90
2018-05-31T18:54:14.547Z,54.10
2018-05-31T18:59:17.038Z,54.00
2018-05-31T19:04:19.533Z,54.20
2018-05-31T19:09:28.420Z,54.30
2018-05-31T19:14:30.967Z,54.20
2018-05-31T19:19:39.988Z,54.30
2018-05-31T19:24:48.095Z,54.30
2018-05-31T19:29:50.568Z,54.40
2018-05-31T19:34:53.069Z,54.40
2018-05-31T19:39:55.560Z,54.40
2018-05-31T19:44:58.057Z,54.50
2018-05-31T19:50:00.544Z,54.60
2018-05-31T19:55:03.056Z,54.60
2018-05-31T20:00:11.343Z,54.40
2018-05-31T20:05:13.846Z,54.40
2018-05-31T20:10:16.340Z,54.30
2018-05-31T20:15:18.843Z,54.30
2018-05-31T20:20:21.332Z,54.40
2018-05-31T20:25:23.856Z,54.50
2018-05-31T20:30:26.352Z,54.60
2018-05-31T20:35:28.933Z,54.60
2018-05-31T20:40:31.424Z,54.60
2018-05-31T20:45:33.900Z,54.60
2018-05-31T20:50:36.389Z,54.60
2018-05-31T20:55:38.924Z,54.60
2018-05-31T21:00:41.432Z,54.60
2018-05-31T21:05:43.932Z,54.60
2018-05-31T21:10:46.429Z,56.10
2018-05-31T21:15:48.924Z,56.20
2018-05-31T21:20:51.455Z,56.90
2018-05-31T21:25:53.940Z,56.80
2018-05-31T21:30:57.195Z,57.10
2018-05-31T21:35:59.696Z,57.80
2018-05-31T21:41:02.195Z,57.20
2018-05-31T21:46:04.675Z,57.30
2018-05-31T21:51:07.169Z,57.20
2018-05-31T21:56:09.668Z,57.30
2018-05-31T22:01:12.188Z,57.20
2018-05-31T22:06:14.681Z,57.30
2018-05-31T22:11:17.180Z,57.40
2018-05-31T22:16:20.428Z,57.60
2018-05-31T22:21:22.945Z,57.50
2018-05-31T22:26:25.437Z,58.20
2018-05-31T22:31:27.918Z,57.50
2018-05-31T22:36:30.435Z,57.60
2018-05-31T22:41:32.940Z,57.60
2018-05-31T22:46:35.445Z,57.70
2018-05-31T22:51:37.927Z,57.80
2018-05-31T22:56:40.432Z,57.40
2018-05-31T23:01:42.957Z,57.80
2018-05-31T23:06:45.449Z,58.50
2018-05-31T23:11:47.940Z,57.90
2018-05-31T23:16:50.440Z,58.00
2018-05-31T23:21:52.959Z,58.00
2018-05-31T23:26:55.464Z,58.20
2018-05-31T23:31:57.946Z,58.10
2018-05-31T23:37:00.448Z,58.20
2018-05-31T23:42:02.937Z,58.30
2018-05-31T23:47:05.424Z,58.30
2018-05-31T23:52:07.919Z,58.30
2018-05-31T23:57:10.421Z,58.30
